Hampton, NH

4:33 AM EST on February 06, 2016 (GMT -0500)
Between beach and center of town | | Change Station
CLOSE
Current Station
Personal Weather Station
Location: Hampton, NH
Elevation: 69 ft
Nearby Weather Stations

Elev 69 ft 42.94 °N, 70.83 °W | Updated 13 minutes ago

Clear
Clear
16.6 °F
Feels Like 17 °F
N
0.0
Wind Variable Wind from North

Today
High -- | Low -- °F
--% Chance of Precip.
Yesterday
High -- | Low -- °F
Precip. -- in
Pressure 30.28 in
Visibility 10.0 miles
Clouds Clear
Windchill 17 °F
Dew Point 14 °F
Humidity 88%
Rainfall Not available.
Snow Depth Not available.
6:53 AM 5:02 PM
Waning Crescent, 6% visible
METAR KPSM 060858Z COR 24004KT 10SM CLR M06/M10 A3027 RMK AO2A SLP254 T10581098 52016 COR 0901
Pressure 30.28 in
Visibility 10.0 miles
Clouds Clear
Windchill 17 °F
Dew Point 14 °F
Humidity 88%
Rainfall Not available.
Snow Depth Not available.
6:53 AM 5:02 PM
Waning Crescent, 6% visible
METAR KPSM 060858Z COR 24004KT 10SM CLR M06/M10 A3027 RMK AO2A SLP254 T10581098 52016 COR 0901

10-Day Weather Forecast

Almanac

Astronomy

Feb. 06, 2016 Rise Set
Actual Time
Civil Twilight
Nautical Twilight
Astronomical Twilight
Moon
Length of Visible Light
Length of Day
Tomorrow will be .
, % of the Moon is Illuminated

Today's Extremes

State Highs State Lows

Community

WunderPhotos

Upload Photos

1,890,933 photos uploaded!

WunderBlog® & News

Nearby

Air Quality

  Air Quality AQ Index Pollutant
Not available.

Snow Depth

Station Depth Elevation

Earthquake Activity

City Distance Mag. Time & Date
Minimum magnitude displayed is 2.5.

Coastal Water Temperatures

Place Temperature

Stations

Nearby Weather Stations

Station Location Temp. Windchill Dew Point Humidity Wind Precip. Elev Updated Type
                   

Watches & Warnings

There are currently no watches in effect.